Time;durP1;ratioP1;P1;durP2;ratioP2;P2;SDS_P1;SDS_P2;PMS_P1;PMS_P2;Temp;Humidity;BMP_temperature;BMP_pressure;BME280_temperature;BME280_humidity;BME280_pressure;Samples;Min_cycle;Max_cycle;Signal;HPM_P1;HPM_P2
2022/12/18 00:01:20;;;;;;;59.63;39.73;;;-5.50;99.90;;;;;;5095834;28;20423;-42
2022/12/18 00:03:46;;;;;;;58.17;40.53;;;-5.50;99.90;;;;;;5096840;28;20442;-42
2022/12/18 00:06:13;;;;;;;62.63;40.70;;;-5.50;99.90;;;;;;5096701;28;20449;-42
2022/12/18 00:08:39;;;;;;;60.43;39.27;;;-5.60;99.90;;;;;;5097405;28;20518;-42
2022/12/18 00:11:06;;;;;;;62.17;37.93;;;-5.60;99.90;;;;;;5097306;28;20440;-42
2022/12/18 00:13:32;;;;;;;55.63;38.90;;;-5.60;99.90;;;;;;5097287;28;20458;-42
2022/12/18 00:16:02;;;;;;;54.70;36.43;;;-5.60;99.90;;;;;;5097359;28;20445;-41
2022/12/18 00:18:28;;;;;;;51.90;37.17;;;-5.60;99.90;;;;;;5097611;28;20207;-42
2022/12/18 00:20:54;;;;;;;54.63;35.27;;;-5.60;99.90;;;;;;5097128;28;20427;-41
2022/12/18 00:23:19;;;;;;;54.80;35.03;;;-5.60;99.90;;;;;;5096695;28;20172;-45
2022/12/18 00:25:45;;;;;;;60.87;38.00;;;-5.60;99.90;;;;;;5096569;28;20173;-43
2022/12/18 00:28:10;;;;;;;58.00;35.17;;;-5.70;94.30;;;;;;5097815;28;20499;-42
2022/12/18 00:30:36;;;;;;;56.67;36.30;;;-5.70;79.60;;;;;;5097701;28;20180;-42
2022/12/18 00:33:02;;;;;;;53.50;36.87;;;-5.70;63.90;;;;;;5096657;28;20211;-42
2022/12/18 00:35:27;;;;;;;56.77;36.30;;;-5.70;55.70;;;;;;5096930;28;20216;-42
2022/12/18 00:37:53;;;;;;;53.23;33.80;;;-5.70;45.80;;;;;;5097562;28;20208;-43
2022/12/18 00:40:18;;;;;;;52.70;35.47;;;-5.80;32.60;;;;;;5097244;28;20183;-42
2022/12/18 00:42:56;;;;;;;50.60;35.87;;;-5.80;19.70;;;;;;5078926;28;20176;-43
2022/12/18 00:45:27;;;;;;;58.60;36.73;;;-5.80;9.30;;;;;;5097593;28;20245;-42
2022/12/18 00:47:53;;;;;;;59.43;36.60;;;-5.80;1.10;;;;;;5097321;28;20763;-40
2022/12/18 00:50:19;;;;;;;50.20;36.30;;;-5.90;1.00;;;;;;5097604;28;20487;-41
2022/12/18 00:52:44;;;;;;;51.70;34.07;;;-5.90;1.00;;;;;;5080398;28;20423;-41
2022/12/18 00:55:11;;;;;;;49.93;32.40;;;-5.90;1.00;;;;;;5097468;28;20432;-42
2022/12/18 00:57:37;;;;;;;48.20;33.03;;;-5.90;1.00;;;;;;5097014;28;20223;-41
2022/12/18 01:00:04;;;;;;;49.30;33.10;;;-5.90;1.90;;;;;;5095520;28;20653;-41
2022/12/18 01:02:30;;;;;;;47.53;31.73;;;-5.90;1.00;;;;;;5097852;28;20180;-42
2022/12/18 01:04:55;;;;;;;49.50;32.10;;;-5.90;1.00;;;;;;5097613;28;20684;-43
2022/12/18 01:07:21;;;;;;;47.53;31.67;;;-5.90;1.00;;;;;;5097353;28;20475;-42
2022/12/18 01:09:46;;;;;;;47.20;31.10;;;-6.00;1.00;;;;;;5079811;28;20470;-41
2022/12/18 01:12:12;;;;;;;46.13;30.40;;;-6.00;1.00;;;;;;5097819;28;20328;-41
2022/12/18 01:14:38;;;;;;;46.97;30.87;;;-6.00;1.00;;;;;;5097835;28;20439;-41
2022/12/18 01:17:04;;;;;;;49.40;30.47;;;-6.00;1.00;;;;;;5097762;28;20239;-44
2022/12/18 01:19:29;;;;;;;49.90;30.87;;;-6.00;1.00;;;;;;5101566;28;20168;-42
2022/12/18 01:21:55;;;;;;;43.57;29.37;;;-6.00;1.00;;;;;;5101767;28;20765;-42
2022/12/18 01:24:21;;;;;;;47.37;30.27;;;-6.00;1.00;;;;;;5100817;28;20182;-43
2022/12/18 01:26:46;;;;;;;40.60;27.20;;;-6.00;4.50;;;;;;5101033;28;20181;-42
2022/12/18 01:29:12;;;;;;;51.77;32.30;;;-6.10;6.70;;;;;;5100447;28;20279;-42
2022/12/18 01:31:38;;;;;;;45.67;29.70;;;-6.10;4.70;;;;;;5100653;28;20545;-42
2022/12/18 01:34:04;;;;;;;45.10;30.13;;;-6.10;7.20;;;;;;5099610;28;20263;-42
2022/12/18 01:36:33;;;;;;;47.83;28.00;;;-6.10;5.80;;;;;;5097930;28;20184;-41
2022/12/18 01:39:04;;;;;;;44.57;26.53;;;-6.10;5.40;;;;;;5098118;28;20414;-41
2022/12/18 01:44:52;;;;;;;44.10;25.83;;;-6.00;27.50;;;;;;5096859;28;20413;-41
2022/12/18 01:47:36;;;;;;;34.57;24.60;;;-6.00;52.50;;;;;;5097079;28;20433;-42
2022/12/18 01:50:09;;;;;;;40.70;24.80;;;-5.90;94.30;;;;;;5099109;28;20452;-43
2022/12/18 01:52:36;;;;;;;37.03;22.37;;;-5.90;99.90;;;;;;5080998;28;20829;-42
2022/12/18 01:55:03;;;;;;;37.23;23.77;;;-5.90;99.90;;;;;;5098032;28;20796;-47
2022/12/18 01:57:29;;;;;;;39.23;23.63;;;-5.90;99.90;;;;;;5080878;28;20497;-43
2022/12/18 01:59:59;;;;;;;38.03;22.83;;;-5.80;99.90;;;;;;5080498;28;20415;-43
2022/12/18 02:02:28;;;;;;;36.30;23.40;;;-5.80;99.90;;;;;;5097753;28;20888;-41
2022/12/18 02:04:54;;;;;;;39.93;23.67;;;-5.70;99.90;;;;;;5097210;28;20407;-43
2022/12/18 02:07:23;;;;;;;40.57;24.40;;;-5.70;1.00;;;;;;5097683;28;20859;-41
2022/12/18 02:10:03;;;;;;;36.20;22.63;;;-5.70;1.00;;;;;;5098334;28;20289;-43
2022/12/18 02:12:43;;;;;;;35.77;24.33;;;-5.70;1.00;;;;;;5082651;28;20462;-42
2022/12/18 02:18:35;;;;;;;36.30;22.00;;;-5.60;1.00;;;;;;5098857;28;20473;-43
2022/12/18 02:21:07;;;;;;;39.47;24.43;;;-5.50;1.00;;;;;;5097700;28;20811;-42
2022/12/18 02:23:52;;;;;;;35.43;22.87;;;-5.50;1.00;;;;;;5098534;28;20563;-43
2022/12/18 02:26:29;;;;;;;36.27;22.90;;;-5.40;1.00;;;;;;5099311;28;20419;-44
2022/12/18 02:29:00;;;;;;;37.00;23.70;;;-5.40;1.00;;;;;;5097119;28;20854;-41
2022/12/18 02:31:30;;;;;;;34.27;22.00;;;-5.40;1.00;;;;;;5098630;28;20436;-41
2022/12/18 02:34:02;;;;;;;36.83;23.03;;;-5.30;1.00;;;;;;5098581;28;20438;-42
2022/12/18 02:36:29;;;;;;;36.70;21.93;;;-5.30;1.00;;;;;;5100180;28;20530;-42
2022/12/18 02:39:00;;;;;;;35.63;23.07;;;-5.30;1.00;;;;;;5099163;28;20853;-43
2022/12/18 02:41:26;;;;;;;35.00;21.73;;;-5.30;1.00;;;;;;5098109;28;20407;-43
2022/12/18 02:43:57;;;;;;;41.00;23.87;;;-5.30;1.00;;;;;;5098776;28;20427;-42
2022/12/18 02:46:29;;;;;;;35.50;25.03;;;-5.30;1.00;;;;;;5099606;28;20452;-41
2022/12/18 02:49:12;;;;;;;34.13;24.30;;;-5.30;1.00;;;;;;5099774;28;20924;-42
2022/12/18 02:51:57;;;;;;;40.03;24.33;;;-5.30;1.00;;;;;;5099787;28;20407;-43
2022/12/18 02:54:26;;;;;;;36.47;23.60;;;-5.30;1.00;;;;;;5098263;28;20829;-42
2022/12/18 02:56:54;;;;;;;35.77;23.37;;;-5.30;1.00;;;;;;5098630;28;20470;-44
2022/12/18 02:59:44;;;;;;;38.07;23.47;;;-5.40;99.90;;;;;;5099368;28;20446;-42
2022/12/18 03:02:46;;;;;;;41.20;24.70;;;-5.40;99.90;;;;;;5099470;28;20423;-44
2022/12/18 03:05:24;;;;;;;33.67;23.13;;;-5.40;99.90;;;;;;5067416;28;20819;-43
2022/12/18 03:07:55;;;;;;;40.87;23.50;;;-5.40;99.90;;;;;;5098794;28;20426;-43
2022/12/18 03:10:27;;;;;;;34.43;21.80;;;-5.40;99.90;;;;;;5099791;28;20448;-43
2022/12/18 03:12:58;;;;;;;33.37;20.77;;;-5.40;99.90;;;;;;5092771;28;20516;-44
2022/12/18 03:15:28;;;;;;;37.10;23.87;;;-5.40;99.90;;;;;;5081665;28;20422;-42
2022/12/18 03:18:02;;;;;;;35.30;22.30;;;-5.40;99.90;;;;;;5080693;28;20534;-43
2022/12/18 03:20:31;;;;;;;32.40;21.00;;;-5.40;99.90;;;;;;5081410;28;20410;-42
2022/12/18 03:23:03;;;;;;;31.07;21.40;;;-5.40;1.00;;;;;;5099169;28;20422;-44
2022/12/18 03:25:30;;;;;;;29.00;21.33;;;-5.40;1.00;;;;;;5079987;28;20414;-43
2022/12/18 03:27:57;;;;;;;31.30;22.67;;;-5.40;1.00;;;;;;5079833;28;20435;-44
2022/12/18 03:30:23;;;;;;;32.37;21.03;;;-5.40;1.00;;;;;;5079921;28;20450;-44
2022/12/18 03:33:01;;;;;;;31.60;19.10;;;-5.40;1.00;;;;;;5079809;28;20504;-44
2022/12/18 03:35:32;;;;;;;31.83;21.17;;;-5.40;1.00;;;;;;5079868;28;20411;-43
2022/12/18 03:37:57;;;;;;;27.90;20.03;;;-5.50;1.00;;;;;;5079477;28;20603;-45
2022/12/18 03:40:30;;;;;;;30.87;20.40;;;-5.50;1.00;;;;;;5098408;28;20521;-42
2022/12/18 03:43:06;;;;;;;30.17;19.97;;;-5.50;1.00;;;;;;5097238;28;20249;-41
2022/12/18 03:45:36;;;;;;;25.87;18.93;;;-5.50;1.00;;;;;;5080241;28;20662;-42
2022/12/18 03:48:16;;;;;;;27.53;19.10;;;-5.50;1.00;;;;;;5097969;28;20448;-41
2022/12/18 03:50:56;;;;;;;27.00;19.03;;;-5.50;1.00;;;;;;5080472;28;20505;-42
2022/12/18 03:53:33;;;;;;;28.50;19.00;;;-5.50;1.00;;;;;;5098360;28;20441;-42
2022/12/18 03:56:00;;;;;;;31.00;19.47;;;-5.60;1.00;;;;;;5098650;28;20425;-41
2022/12/18 03:58:27;;;;;;;27.73;20.27;;;-5.50;1.00;;;;;;5098585;28;20489;-42
2022/12/18 04:00:55;;;;;;;29.90;21.37;;;-5.50;1.00;;;;;;5098921;28;20872;-42
2022/12/18 04:03:21;;;;;;;31.30;20.20;;;-5.50;1.00;;;;;;5096648;28;20834;-42
2022/12/18 04:05:50;;;;;;;28.70;20.60;;;-5.60;1.00;;;;;;5096964;28;20430;-43
2022/12/18 04:08:16;;;;;;;30.73;19.40;;;-5.50;1.00;;;;;;5079031;28;20824;-41
2022/12/18 04:10:41;;;;;;;31.20;20.53;;;-5.60;1.00;;;;;;5078431;28;20511;-43
2022/12/18 04:13:07;;;;;;;27.63;19.17;;;-5.60;1.00;;;;;;5095835;28;20474;-42
2022/12/18 04:15:37;;;;;;;31.57;19.60;;;-5.60;99.90;;;;;;5078851;28;20180;-43
2022/12/18 04:18:03;;;;;;;30.63;20.87;;;-5.60;99.90;;;;;;5079107;28;20228;-41
2022/12/18 04:20:29;;;;;;;30.90;19.87;;;-5.70;99.90;;;;;;5097718;28;20411;-42
2022/12/18 04:22:54;;;;;;;26.13;18.50;;;-5.70;99.90;;;;;;5097037;28;20430;-43
2022/12/18 04:25:20;;;;;;;29.87;20.37;;;-5.70;99.90;;;;;;5097009;28;20222;-40
2022/12/18 04:27:45;;;;;;;29.33;19.43;;;-5.70;99.90;;;;;;5097595;28;20228;-41
2022/12/18 04:30:11;;;;;;;35.17;22.50;;;-5.70;99.90;;;;;;5096329;28;20218;-43
2022/12/18 04:32:37;;;;;;;32.57;21.97;;;-5.80;99.90;;;;;;5096527;28;20206;-42
2022/12/18 04:35:06;;;;;;;27.90;19.57;;;-5.80;99.90;;;;;;5096283;28;20446;-42
2022/12/18 04:37:31;;;;;;;28.87;19.57;;;-5.70;99.90;;;;;;5096790;28;20216;-44
2022/12/18 04:39:57;;;;;;;35.30;20.40;;;-5.70;99.90;;;;;;5096584;28;20475;-42
2022/12/18 04:42:23;;;;;;;30.63;19.40;;;-5.80;99.90;;;;;;5097491;28;20192;-44
2022/12/18 04:44:49;;;;;;;31.93;19.27;;;-5.80;99.90;;;;;;5097834;28;20185;-41
2022/12/18 04:47:14;;;;;;;31.07;20.60;;;-5.80;99.90;;;;;;5097783;28;20414;-41
2022/12/18 04:49:40;;;;;;;31.43;19.10;;;-5.80;99.90;;;;;;5098125;28;20241;-41
2022/12/18 04:52:08;;;;;;;32.53;20.13;;;-5.80;99.90;;;;;;5097162;28;20192;-42
2022/12/18 04:54:34;;;;;;;33.03;20.10;;;-5.80;99.90;;;;;;5097848;28;20534;-42
2022/12/18 04:57:00;;;;;;;32.00;20.17;;;-5.80;99.90;;;;;;5097171;28;20485;-43
2022/12/18 04:59:25;;;;;;;29.33;19.70;;;-5.80;99.90;;;;;;5096948;28;20173;-41
2022/12/18 05:01:51;;;;;;;32.80;22.03;;;-5.80;99.90;;;;;;5097449;28;20173;-41
2022/12/18 05:04:17;;;;;;;31.90;20.33;;;-5.90;99.90;;;;;;5097757;28;20191;-40
2022/12/18 05:06:42;;;;;;;30.97;20.07;;;-5.90;99.90;;;;;;5097991;28;20187;-42
2022/12/18 05:09:08;;;;;;;29.57;20.50;;;-5.90;99.90;;;;;;5098051;28;20242;-42
2022/12/18 05:11:36;;;;;;;32.53;20.20;;;-5.90;99.90;;;;;;5097409;28;20509;-42
2022/12/18 05:14:02;;;;;;;31.43;19.87;;;-5.90;99.90;;;;;;5097355;28;20224;-41
2022/12/18 05:16:27;;;;;;;33.63;21.53;;;-6.00;99.90;;;;;;5097660;28;20497;-41
2022/12/18 05:18:53;;;;;;;27.60;19.00;;;-6.00;99.90;;;;;;5097430;28;20212;-44
2022/12/18 05:21:19;;;;;;;32.30;19.53;;;-6.00;99.90;;;;;;5097226;28;20176;-42
2022/12/18 05:23:44;;;;;;;30.70;20.33;;;-6.00;99.90;;;;;;5097063;28;20185;-40
2022/12/18 05:26:15;;;;;;;34.57;21.43;;;-6.00;99.90;;;;;;5096440;28;20184;-41
2022/12/18 05:28:40;;;;;;;28.77;20.40;;;-6.00;99.90;;;;;;5079106;28;20195;-43
2022/12/18 05:31:06;;;;;;;29.27;18.00;;;-6.00;99.90;;;;;;5096018;28;20418;-42
2022/12/18 05:33:34;;;;;;;30.60;18.83;;;-6.10;99.90;;;;;;5096461;28;20581;-41
2022/12/18 05:36:05;;;;;;;26.83;18.73;;;-6.00;99.90;;;;;;5097125;28;20565;-42
2022/12/18 05:38:32;;;;;;;31.47;18.30;;;-6.00;99.90;;;;;;5078023;28;20492;-43
2022/12/18 05:40:58;;;;;;;29.67;18.43;;;-6.10;99.90;;;;;;5096297;28;20463;-41
2022/12/18 05:43:24;;;;;;;32.50;18.77;;;-6.10;99.90;;;;;;5096305;28;20431;-42
2022/12/18 05:45:51;;;;;;;30.00;18.50;;;-6.10;99.90;;;;;;5096553;28;20414;-42
2022/12/18 05:48:17;;;;;;;32.47;19.60;;;-6.10;99.90;;;;;;5095645;28;20430;-42
2022/12/18 05:50:45;;;;;;;30.43;19.70;;;-6.10;99.90;;;;;;5095644;28;20407;-41
2022/12/18 05:53:11;;;;;;;28.00;18.03;;;-6.10;99.90;;;;;;5095752;28;20434;-42
2022/12/18 05:55:39;;;;;;;27.70;16.80;;;-6.10;99.90;;;;;;5096417;28;20424;-42
2022/12/18 05:58:06;;;;;;;26.93;18.90;;;-6.10;99.90;;;;;;5096193;28;20484;-41
2022/12/18 06:00:33;;;;;;;29.90;18.97;;;-6.10;99.90;;;;;;5094920;28;20678;-41
2022/12/18 06:02:59;;;;;;;31.67;18.53;;;-6.10;99.90;;;;;;5095941;28;20430;-41
2022/12/18 06:05:25;;;;;;;34.97;20.93;;;-6.20;99.90;;;;;;5099323;28;20489;-41
2022/12/18 06:07:50;;;;;;;31.63;19.53;;;-6.20;99.90;;;;;;5100402;28;20184;-41
2022/12/18 06:10:16;;;;;;;29.50;18.30;;;-6.20;99.90;;;;;;5101047;28;20506;-41
2022/12/18 06:12:42;;;;;;;29.30;18.20;;;-6.20;99.90;;;;;;5099421;28;20326;-42
2022/12/18 06:15:14;;;;;;;26.37;17.00;;;-6.20;99.90;;;;;;5099363;28;20246;-41
2022/12/18 06:17:40;;;;;;;29.53;18.57;;;-6.20;99.90;;;;;;5099144;28;20208;-42
2022/12/18 06:20:06;;;;;;;27.93;16.60;;;-6.20;99.90;;;;;;5098411;28;20839;-42
2022/12/18 06:22:32;;;;;;;33.13;19.83;;;-6.20;99.90;;;;;;5098653;28;20638;-42
2022/12/18 06:24:59;;;;;;;29.70;19.10;;;-6.20;99.90;;;;;;5099340;28;20497;-42
2022/12/18 06:27:24;;;;;;;31.10;17.93;;;-6.20;99.90;;;;;;5099825;28;20224;-42
2022/12/18 06:29:50;;;;;;;27.20;16.60;;;-6.20;99.90;;;;;;5100432;28;20697;-42
2022/12/18 06:32:16;;;;;;;27.00;17.07;;;-6.10;99.90;;;;;;5100668;28;20424;-41
2022/12/18 06:34:42;;;;;;;30.77;17.93;;;-6.10;99.90;;;;;;5100338;28;20419;-42
2022/12/18 06:37:07;;;;;;;29.63;18.40;;;-6.10;99.90;;;;;;5099438;28;20488;-41
2022/12/18 06:39:33;;;;;;;27.50;19.07;;;-6.10;99.90;;;;;;5098073;28;20275;-41
2022/12/18 06:41:58;;;;;;;30.77;18.80;;;-6.10;99.90;;;;;;5098544;28;20169;-45
2022/12/18 06:44:24;;;;;;;29.30;18.00;;;-6.10;99.90;;;;;;5098912;28;20172;-41
2022/12/18 06:46:49;;;;;;;37.37;19.33;;;-6.10;99.90;;;;;;5099755;28;20184;-41
2022/12/18 06:49:15;;;;;;;31.20;19.50;;;-6.10;99.90;;;;;;5099325;28;20343;-42
2022/12/18 06:51:41;;;;;;;29.27;18.73;;;-6.10;99.90;;;;;;5099613;28;20176;-42
2022/12/18 06:54:07;;;;;;;29.23;18.13;;;-6.10;99.90;;;;;;5099595;28;20430;-42
2022/12/18 06:56:33;;;;;;;31.50;17.67;;;-6.10;99.90;;;;;;5098208;28;20450;-42
2022/12/18 06:58:58;;;;;;;31.57;18.70;;;-6.10;99.90;;;;;;5097686;28;20220;-42
2022/12/18 07:01:24;;;;;;;31.00;18.60;;;-6.10;99.90;;;;;;5098044;28;20190;-43
2022/12/18 07:03:54;;;;;;;33.70;19.37;;;-6.10;99.90;;;;;;5098261;28;20180;-45
2022/12/18 07:06:22;;;;;;;29.03;17.83;;;-6.10;99.90;;;;;;5099314;28;20172;-41
2022/12/18 07:08:49;;;;;;;27.63;20.10;;;-6.10;99.90;;;;;;5098830;28;20856;-42
2022/12/18 07:11:14;;;;;;;34.00;18.70;;;-6.10;99.90;;;;;;5098755;28;20521;-41
2022/12/18 07:13:40;;;;;;;32.50;20.73;;;-6.00;99.90;;;;;;5098182;28;20581;-41
2022/12/18 07:16:17;;;;;;;30.50;20.23;;;-6.00;99.90;;;;;;5099583;28;20752;-43
2022/12/18 07:18:43;;;;;;;31.43;19.53;;;-6.00;99.90;;;;;;5099032;28;20238;-43
2022/12/18 07:21:12;;;;;;;35.30;20.70;;;-6.00;99.90;;;;;;5081217;28;20422;-42
2022/12/18 07:23:37;;;;;;;37.20;20.60;;;-5.90;99.90;;;;;;5098886;28;20430;-43
2022/12/18 07:26:08;;;;;;;32.17;19.70;;;-5.80;99.90;;;;;;5098957;28;20479;-41
2022/12/18 07:28:35;;;;;;;33.60;19.73;;;-5.80;99.90;;;;;;5099267;28;20180;-43
2022/12/18 07:31:06;;;;;;;41.27;23.13;;;-5.70;99.90;;;;;;5099701;28;20480;-42
2022/12/18 07:33:32;;;;;;;31.83;20.07;;;-5.70;99.90;;;;;;5081770;28;20445;-43
2022/12/18 07:36:03;;;;;;;29.70;17.20;;;-5.60;99.90;;;;;;5099847;28;20545;-41
2022/12/18 07:38:29;;;;;;;29.90;18.63;;;-5.60;99.90;;;;;;5099421;28;20891;-43
2022/12/18 07:40:55;;;;;;;36.87;22.33;;;-5.50;99.90;;;;;;5098274;28;20406;-42
2022/12/18 07:43:20;;;;;;;37.63;22.33;;;-5.40;99.90;;;;;;5097709;28;20207;-41
2022/12/18 07:45:49;;;;;;;35.47;22.07;;;-5.30;99.90;;;;;;5098267;28;20267;-41
2022/12/18 07:48:15;;;;;;;35.53;21.07;;;-5.10;99.90;;;;;;5098898;28;20267;-42
2022/12/18 07:50:40;;;;;;;31.03;21.33;;;-4.90;99.90;;;;;;5098919;28;20502;-43
2022/12/18 07:53:06;;;;;;;34.10;19.40;;;-4.70;99.90;;;;;;5097868;28;20458;-41
2022/12/18 07:55:32;;;;;;;34.63;20.27;;;-4.40;99.90;;;;;;5098536;28;20191;-43
2022/12/18 07:58:01;;;;;;;32.90;20.33;;;-4.10;99.90;;;;;;5098042;28;20239;-41
2022/12/18 08:00:26;;;;;;;36.03;21.47;;;-3.70;45.40;;;;;;5098009;28;20418;-43
2022/12/18 08:02:52;;;;;;;34.57;20.57;;;-3.30;7.50;;;;;;5098453;28;20441;-43
2022/12/18 08:05:17;;;;;;;30.83;20.60;;;-2.90;1.00;;;;;;5100760;28;20176;-44
2022/12/18 08:07:43;;;;;;;32.90;19.87;;;-2.50;1.00;;;;;;5100073;28;20188;-43
2022/12/18 08:10:09;;;;;;;29.73;20.23;;;-2.00;1.00;;;;;;5100698;28;20212;-44
2022/12/18 08:12:34;;;;;;;33.37;21.43;;;-1.60;1.00;;;;;;5100682;28;20262;-43
2022/12/18 08:15:00;;;;;;;35.93;21.80;;;-1.20;1.00;;;;;;5099789;28;20180;-42
2022/12/18 08:17:27;;;;;;;32.27;21.30;;;-0.80;1.00;;;;;;5098183;28;20335;-42
2022/12/18 08:19:52;;;;;;;32.17;21.17;;;-0.40;1.00;;;;;;5098883;28;20418;-43
2022/12/18 08:22:18;;;;;;;29.00;19.63;;;0.10;1.00;;;;;;5097638;28;20214;-42
2022/12/18 08:24:44;;;;;;;32.07;22.07;;;0.50;1.00;;;;;;5098783;28;20192;-47
2022/12/18 08:27:10;;;;;;;36.17;22.60;;;0.90;1.00;;;;;;5097923;28;20245;-43
2022/12/18 08:29:35;;;;;;;32.33;22.60;;;1.30;1.00;;;;;;5097343;28;20411;-43
2022/12/18 08:32:01;;;;;;;34.00;22.80;;;1.70;1.00;;;;;;5096901;28;20184;-44
2022/12/18 08:34:26;;;;;;;32.90;23.20;;;2.20;1.00;;;;;;5098294;28;20183;-42
2022/12/18 08:36:52;;;;;;;31.80;22.60;;;2.60;1.00;;;;;;5097493;28;20172;-41
2022/12/18 08:39:18;;;;;;;31.50;22.00;;;3.00;1.00;;;;;;5097133;28;20172;-41
2022/12/18 08:44:37;;;;;;;32.30;24.23;;;3.50;1.00;;;;;;5096071;28;20182;-42
2022/12/18 08:44:38;;;;;;;29.73;23.00;;;3.90;1.00;;;;;;5096868;28;20176;-42
2022/12/18 08:47:04;;;;;;;29.80;20.03;;;4.40;1.00;;;;;;5095964;28;20450;-40
2022/12/18 08:49:30;;;;;;;29.27;20.97;;;4.80;1.00;;;;;;5096976;28;20914;-40
2022/12/18 08:51:59;;;;;;;29.40;22.40;;;5.30;1.00;;;;;;5097265;28;20470;-42
2022/12/18 08:54:25;;;;;;;28.70;21.00;;;5.70;1.00;;;;;;5097723;28;20188;-42
2022/12/18 08:56:50;;;;;;;28.87;21.40;;;6.10;1.00;;;;;;5098181;28;20434;-45
2022/12/18 08:59:19;;;;;;;29.17;22.20;;;6.60;1.00;;;;;;5096569;28;20857;-42
2022/12/18 09:01:45;;;;;;;30.43;22.67;;;7.00;1.00;;;;;;5097527;28;20192;-41
2022/12/18 09:04:11;;;;;;;28.67;21.60;;;7.40;1.00;;;;;;5097400;28;20425;-41
2022/12/18 09:06:37;;;;;;;32.07;23.87;;;7.80;1.00;;;;;;5097458;28;20410;-43
2022/12/18 09:09:04;;;;;;;26.87;20.63;;;8.10;1.00;;;;;;5096616;28;20819;-45
2022/12/18 09:11:30;;;;;;;34.60;24.17;;;8.50;1.00;;;;;;5095279;28;20172;-42
2022/12/18 09:13:56;;;;;;;32.30;24.67;;;8.90;1.00;;;;;;5044817;28;20581;-43
2022/12/18 09:16:23;;;;;;;31.00;23.30;;;9.20;1.00;;;;;;5076786;28;20450;-43
2022/12/18 09:18:50;;;;;;;28.07;22.50;;;9.50;1.00;;;;;;5058250;28;20888;-44
2022/12/18 09:21:20;;;;;;;29.00;22.37;;;10.00;1.00;;;;;;5075973;28;20426;-45
2022/12/18 09:23:53;;;;;;;26.63;23.00;;;10.30;1.00;;;;;;5076675;28;20465;-42
2022/12/18 09:26:20;;;;;;;28.20;22.73;;;10.50;1.00;;;;;;5075597;28;20423;-44
2022/12/18 09:28:46;;;;;;;23.13;17.63;;;10.80;1.00;;;;;;5075873;28;20434;-45
2022/12/18 09:31:15;;;;;;;9.43;5.20;;;10.90;1.00;;;;;;5075836;28;20472;-47
2022/12/18 09:33:41;;;;;;;14.57;9.70;;;12.00;1.00;;;;;;5074718;28;20180;-47
2022/12/18 09:36:09;;;;;;;11.43;10.23;;;12.90;1.00;;;;;;5072567;28;20798;-46
2022/12/18 09:38:35;;;;;;;16.40;11.70;;;13.80;99.90;;;;;;5054821;28;20510;-43
2022/12/18 09:41:05;;;;;;;17.63;14.90;;;14.80;99.90;;;;;;5076395;28;20423;-44
2022/12/18 09:43:50;;;;;;;21.23;18.87;;;15.50;1.00;;;;;;5061897;28;20451;-41
2022/12/18 09:46:41;;;;;;;25.77;21.53;;;15.60;1.00;;;;;;5097697;28;20432;-41
2022/12/18 09:49:17;;;;;;;27.03;22.73;;;15.40;1.00;;;;;;5076876;28;20427;-43
2022/12/18 09:51:47;;;;;;;26.27;22.97;;;15.30;1.00;;;;;;5092549;28;20414;-42
2022/12/18 09:54:18;;;;;;;23.60;21.20;;;15.20;1.00;;;;;;5098724;28;20422;-44
2022/12/18 09:56:44;;;;;;;24.53;21.93;;;15.20;1.00;;;;;;5080767;28;20418;-44
2022/12/18 09:59:20;;;;;;;22.63;20.20;;;15.30;1.00;;;;;;5100151;28;20437;-40
2022/12/18 10:01:46;;;;;;;25.20;22.33;;;15.40;1.00;;;;;;5099615;28;20259;-42
2022/12/18 10:04:11;;;;;;;25.33;22.07;;;15.50;1.00;;;;;;5097318;28;20525;-43
2022/12/18 10:06:45;;;;;;;24.43;21.83;;;15.50;1.00;;;;;;5099359;28;20172;-43
2022/12/18 10:09:33;;;;;;;23.57;21.17;;;15.50;99.90;;;;;;5099166;28;20187;-43
2022/12/18 10:12:06;;;;;;;24.00;21.50;;;15.80;1.00;;;;;;5100057;28;20407;-43
2022/12/18 10:15:06;;;;;;;26.00;23.27;;;16.10;1.00;;;;;;5116637;28;20451;-43
2022/12/18 10:17:58;;;;;;;24.73;22.03;;;16.30;1.00;;;;;;5117242;28;20454;-43
2022/12/18 10:20:39;;;;;;;24.87;22.23;;;16.60;1.00;;;;;;5100410;28;20466;-44
2022/12/18 10:23:22;;;;;;;27.03;24.20;;;16.70;1.00;;;;;;5117043;28;20421;-45
2022/12/18 10:26:04;;;;;;;23.20;20.80;;;16.90;1.00;;;;;;5117891;28;20417;-43
2022/12/18 10:28:31;;;;;;;25.93;23.20;;;17.10;1.00;;;;;;5100171;28;20421;-44
2022/12/18 10:30:57;;;;;;;24.63;21.93;;;17.20;1.00;;;;;;5101907;28;20425;-44
2022/12/18 10:33:27;;;;;;;24.23;21.60;;;17.40;1.00;;;;;;5100659;28;20426;-43
2022/12/18 10:35:53;;;;;;;24.00;21.50;;;17.60;1.00;;;;;;5101839;28;20406;-42
2022/12/18 10:38:19;;;;;;;24.17;21.70;;;18.10;1.00;;;;;;5117766;28;20685;-43
2022/12/18 10:40:58;;;;;;;22.70;20.30;;;18.50;1.00;;;;;;5117660;28;20513;-42
2022/12/18 10:43:29;;;;;;;24.10;21.73;;;18.90;1.00;;;;;;5116717;28;20171;-41
2022/12/18 10:46:09;;;;;;;23.80;21.30;;;19.20;1.00;;;;;;5117663;28;20417;-43
2022/12/18 10:48:46;;;;;;;25.03;22.50;;;19.20;1.00;;;;;;5117761;28;20429;-42
2022/12/18 10:51:39;;;;;;;22.37;20.03;;;19.30;1.00;;;;;;5117201;28;20852;-42
2022/12/18 10:54:15;;;;;;;24.47;22.00;;;19.30;1.00;;;;;;5099536;28;20422;-42
2022/12/18 10:56:41;;;;;;;23.40;21.00;;;19.40;1.00;;;;;;5098769;28;20780;-43
2022/12/18 10:59:08;;;;;;;23.23;20.93;;;19.50;1.00;;;;;;5099569;28;20551;-42
2022/12/18 11:01:58;;;;;;;20.57;18.47;;;19.70;1.00;;;;;;5119208;28;20172;-44
2022/12/18 11:04:29;;;;;;;23.30;20.90;;;20.00;1.00;;;;;;5100564;28;20417;-47
2022/12/18 11:06:56;;;;;;;22.80;20.50;;;20.30;1.00;;;;;;5100975;28;20421;-44
2022/12/18 11:09:28;;;;;;;22.80;17.00;;;20.60;1.00;;;;;;5119350;28;20681;-44
2022/12/18 11:11:59;;;;;;;22.87;15.00;;;21.80;1.00;;;;;;5107943;28;20827;-44
2022/12/18 11:14:32;;;;;;;19.37;14.00;;;22.40;1.00;;;;;;5091858;28;20715;-45
2022/12/18 11:16:59;;;;;;;23.37;16.90;;;23.50;1.00;;;;;;5118619;28;20405;-45
2022/12/18 11:19:35;;;;;;;19.20;15.87;;;24.50;1.00;;;;;;5117952;28;20765;-46
2022/12/18 11:22:02;;;;;;;20.00;15.40;;;25.30;1.00;;;;;;5116335;28;20488;-46
2022/12/18 11:24:33;;;;;;;17.73;15.97;;;26.00;1.00;;;;;;5082639;28;20503;-46
2022/12/18 11:27:02;;;;;;;18.93;17.13;;;26.70;1.00;;;;;;5079065;28;20398;-44
2022/12/18 11:29:33;;;;;;;21.90;19.80;;;27.10;1.00;;;;;;5080042;28;20391;-44
2022/12/18 11:32:14;;;;;;;22.60;20.60;;;26.80;1.00;;;;;;5115128;28;20406;-42
2022/12/18 11:34:44;;;;;;;23.87;21.77;;;26.20;1.00;;;;;;5078634;28;20433;-43
2022/12/18 11:37:10;;;;;;;24.27;22.17;;;25.90;1.00;;;;;;5078631;28;20629;-43
2022/12/18 11:39:51;;;;;;;25.97;23.60;;;25.70;1.00;;;;;;5079405;28;20411;-44
2022/12/18 11:42:19;;;;;;;24.40;22.20;;;25.20;1.00;;;;;;5096723;28;21047;-43
2022/12/18 11:44:56;;;;;;;23.17;21.00;;;25.50;1.00;;;;;;5077575;28;20823;-43
2022/12/18 11:47:42;;;;;;;22.60;20.53;;;25.90;1.00;;;;;;5078390;28;20468;-43
2022/12/18 11:50:18;;;;;;;23.57;21.37;;;26.10;1.00;;;;;;5095309;28;20393;-43
2022/12/18 11:52:44;;;;;;;23.73;21.73;;;26.30;1.00;;;;;;5078240;28;20566;-42
2022/12/18 11:55:27;;;;;;;24.63;22.53;;;26.30;1.00;;;;;;5096672;28;20505;-45
2022/12/18 11:58:04;;;;;;;24.63;22.43;;;26.10;1.00;;;;;;5096728;28;20204;-44
2022/12/18 12:00:30;;;;;;;25.70;23.40;;;25.90;1.00;;;;;;5078981;28;20437;-42
2022/12/18 12:03:15;;;;;;;23.23;21.13;;;25.60;1.00;;;;;;5094817;28;20698;-47
2022/12/18 12:05:49;;;;;;;24.40;21.90;;;25.20;1.00;;;;;;5096223;28;20410;-43
2022/12/18 12:08:31;;;;;;;23.17;21.07;;;24.90;1.00;;;;;;5096011;28;20445;-43
2022/12/18 12:11:12;;;;;;;24.50;21.97;;;24.70;1.00;;;;;;5096146;28;20413;-43
2022/12/18 12:13:51;;;;;;;24.53;22.23;;;24.20;1.00;;;;;;5096786;28;20526;-47
2022/12/18 12:16:22;;;;;;;23.17;20.97;;;23.70;1.00;;;;;;5061297;28;20833;-43
2022/12/18 12:19:06;;;;;;;25.40;22.80;;;23.20;1.00;;;;;;5078856;28;20716;-43
2022/12/18 12:21:43;;;;;;;22.07;19.90;;;22.70;99.90;;;;;;5095664;28;20464;-44
2022/12/18 12:24:39;;;;;;;24.00;21.70;;;22.20;99.90;;;;;;5077769;28;20422;-43
2022/12/18 12:27:11;;;;;;;23.27;21.07;;;21.60;99.90;;;;;;5097089;28;20395;-43
2022/12/18 12:29:51;;;;;;;23.77;21.20;;;20.90;99.90;;;;;;5096580;28;20433;-43
2022/12/18 12:32:26;;;;;;;24.03;21.67;;;20.40;99.90;;;;;;5097510;28;20419;-42
2022/12/18 12:35:16;;;;;;;22.50;20.20;;;19.70;99.90;;;;;;5097156;28;20401;-43
2022/12/18 12:37:50;;;;;;;24.10;21.57;;;19.10;99.90;;;;;;5060022;28;20470;-46
2022/12/18 12:40:20;;;;;;;24.10;21.60;;;18.60;99.90;;;;;;5098294;28;20467;-44
2022/12/18 12:43:14;;;;;;;13.67;10.37;;;18.30;99.90;;;;;;5080004;28;20883;-47
2022/12/18 12:45:46;;;;;;;16.17;10.57;;;18.30;99.90;;;;;;5082129;28;20401;-45
2022/12/18 12:48:42;;;;;;;16.30;11.53;;;18.70;99.90;;;;;;5096771;28;20521;-47
2022/12/18 12:51:17;;;;;;;15.17;13.57;;;19.10;99.90;;;;;;5061986;28;20422;-45
2022/12/18 12:53:43;;;;;;;21.60;19.43;;;19.40;99.90;;;;;;5078350;28;20426;-44